Time;durP1;ratioP1;P1;durP2;ratioP2;P2;SDS_P1;SDS_P2;PMS_P1;PMS_P2;Temp;Humidity;BMP_temperature;BMP_pressure;BME280_temperature;BME280_humidity;BME280_pressure;Samples;Min_cycle;Max_cycle;Signal;HPM_P1;HPM_P2
2021/10/21 00:00:10;;;;;;;3.85;1.30;;;13.00;74.00;;;;;;5003342;28;20034;-79
2021/10/21 00:02:39;;;;;;;4.32;1.00;;;13.00;73.90;;;;;;5001409;28;20121;-79
2021/10/21 00:05:07;;;;;;;4.75;0.90;;;13.00;73.90;;;;;;4988239;28;20053;-78
2021/10/21 00:07:33;;;;;;;2.50;1.15;;;13.00;74.00;;;;;;4989871;28;20122;-80
2021/10/21 00:10:02;;;;;;;7.13;1.98;;;12.90;73.80;;;;;;4989341;28;20035;-80
2021/10/21 00:12:29;;;;;;;5.10;0.93;;;12.90;73.80;;;;;;4989722;28;20030;-81
2021/10/21 00:14:55;;;;;;;3.53;0.90;;;12.90;73.80;;;;;;4989409;28;20042;-81
2021/10/21 00:17:21;;;;;;;5.80;1.23;;;12.80;73.60;;;;;;4988493;28;20113;-82
2021/10/21 00:19:47;;;;;;;1.67;0.77;;;12.80;73.60;;;;;;4989767;28;20034;-83
2021/10/21 00:22:13;;;;;;;4.28;0.95;;;12.80;73.60;;;;;;4988529;28;20046;-81
2021/10/21 00:24:39;;;;;;;2.83;1.25;;;12.80;73.60;;;;;;4989625;28;20030;-82
2021/10/21 00:27:05;;;;;;;4.03;1.50;;;12.80;73.70;;;;;;4989308;28;20037;-81
2021/10/21 00:29:31;;;;;;;3.60;1.20;;;12.70;73.50;;;;;;4988995;28;20027;-76
2021/10/21 00:31:56;;;;;;;2.70;1.40;;;12.70;73.50;;;;;;4989199;28;20038;-81
2021/10/21 00:34:22;;;;;;;5.47;1.00;;;12.70;73.60;;;;;;4987492;28;20054;-81
2021/10/21 00:36:48;;;;;;;3.20;1.40;;;12.70;73.60;;;;;;4989035;28;20433;-81
2021/10/21 00:39:14;;;;;;;2.90;0.77;;;12.60;73.40;;;;;;4988562;28;20430;-81
2021/10/21 00:41:40;;;;;;;5.15;1.23;;;12.60;73.50;;;;;;4989039;28;20076;-83
2021/10/21 00:44:11;;;;;;;5.15;2.30;;;12.60;73.50;;;;;;4987646;28;20050;-80
2021/10/21 00:46:38;;;;;;;5.70;1.10;;;12.60;73.50;;;;;;5004146;28;20042;-79
2021/10/21 00:49:05;;;;;;;4.05;1.23;;;12.60;73.50;;;;;;4996806;28;20042;-81
2021/10/21 00:51:33;;;;;;;3.67;0.85;;;12.60;73.50;;;;;;5008475;28;20033;-77
2021/10/21 00:53:59;;;;;;;3.05;1.00;;;12.60;73.50;;;;;;4997802;28;20045;-79
2021/10/21 00:56:26;;;;;;;5.30;1.67;;;12.50;73.30;;;;;;4988927;28;20076;-83
2021/10/21 00:58:53;;;;;;;3.35;0.63;;;12.50;73.30;;;;;;4988602;28;20065;-82
2021/10/21 01:01:20;;;;;;;3.30;1.00;;;12.50;73.40;;;;;;4988825;28;20038;-81
2021/10/21 01:03:46;;;;;;;3.50;1.48;;;12.50;73.90;;;;;;4988539;28;20129;-81
2021/10/21 01:06:13;;;;;;;3.20;1.30;;;12.50;73.40;;;;;;5003989;28;20072;-78
2021/10/21 01:08:40;;;;;;;4.78;0.90;;;12.40;73.30;;;;;;4987997;28;20101;-76
2021/10/21 01:11:07;;;;;;;4.05;1.15;;;12.40;73.30;;;;;;4989372;28;20084;-74
2021/10/21 01:13:33;;;;;;;4.00;1.00;;;12.30;73.10;;;;;;4986818;28;20483;-75
2021/10/21 01:16:06;;;;;;;6.40;1.83;;;12.40;73.30;;;;;;4987953;28;20507;-78
2021/10/21 01:18:34;;;;;;;2.88;0.98;;;12.30;73.20;;;;;;4987440;28;20375;-80
2021/10/21 01:21:01;;;;;;;5.57;1.77;;;12.30;73.20;;;;;;4988134;28;20478;-82
2021/10/21 01:23:28;;;;;;;5.53;1.30;;;12.30;73.30;;;;;;4988060;28;20053;-82
2021/10/21 01:25:54;;;;;;;4.07;1.00;;;12.30;73.30;;;;;;4988052;28;20042;-78
2021/10/21 01:28:20;;;;;;;7.55;2.47;;;12.20;73.20;;;;;;4988041;28;20478;-82
2021/10/21 01:30:46;;;;;;;6.50;1.35;;;12.30;73.40;;;;;;4986891;28;20394;-80
2021/10/21 01:33:13;;;;;;;5.57;1.25;;;12.30;73.40;;;;;;4995852;28;20044;-81
2021/10/21 01:35:39;;;;;;;4.82;1.30;;;12.20;73.30;;;;;;4969952;28;20509;-78
2021/10/21 01:38:05;;;;;;;5.47;2.00;;;12.20;73.30;;;;;;4969957;28;20081;-80
2021/10/21 01:40:31;;;;;;;5.22;1.45;;;12.20;73.30;;;;;;5004279;28;20073;-76
2021/10/21 01:42:58;;;;;;;6.45;1.40;;;12.20;73.30;;;;;;4972205;28;20031;-82
2021/10/21 01:45:28;;;;;;;4.00;1.70;;;12.20;73.30;;;;;;4971581;28;20394;-81
2021/10/21 01:47:55;;;;;;;6.57;1.98;;;12.20;73.30;;;;;;5005397;28;20593;-76
2021/10/21 01:50:22;;;;;;;3.85;1.55;;;12.20;73.30;;;;;;4987956;28;20027;-81
2021/10/21 01:52:49;;;;;;;7.00;1.40;;;12.20;73.30;;;;;;4973313;28;20042;-81
2021/10/21 01:55:16;;;;;;;3.97;1.30;;;12.20;73.30;;;;;;4987986;28;20482;-81
2021/10/21 01:57:42;;;;;;;6.43;2.45;;;12.20;73.30;;;;;;4971659;28;20166;-80
2021/10/21 02:00:11;;;;;;;6.15;2.75;;;12.20;73.30;;;;;;4973082;28;20049;-80
2021/10/21 02:02:38;;;;;;;4.95;1.48;;;12.20;73.30;;;;;;4972550;28;20486;-80
2021/10/21 02:05:05;;;;;;;5.65;1.83;;;12.10;73.20;;;;;;4971501;28;20030;-82
2021/10/21 02:07:32;;;;;;;5.07;1.60;;;12.10;73.20;;;;;;4972832;28;20117;-80
2021/10/21 02:09:58;;;;;;;3.72;1.48;;;12.10;73.20;;;;;;4987688;28;20553;-80
2021/10/21 02:12:24;;;;;;;3.53;1.10;;;12.10;73.20;;;;;;4972981;28;20027;-81
2021/10/21 02:14:50;;;;;;;3.55;1.00;;;12.10;73.20;;;;;;4973032;28;20052;-80
2021/10/21 02:17:16;;;;;;;2.13;1.10;;;12.10;73.20;;;;;;4983638;28;20080;-81
2021/10/21 02:19:42;;;;;;;5.35;1.30;;;12.10;73.30;;;;;;5006977;28;20042;-81
2021/10/21 02:22:08;;;;;;;4.78;1.52;;;12.00;73.10;;;;;;4990730;28;20118;-82
2021/10/21 02:24:34;;;;;;;7.22;1.45;;;12.00;73.70;;;;;;4991758;28;20027;-83
2021/10/21 02:27:00;;;;;;;4.28;1.63;;;12.00;73.20;;;;;;4991224;28;20030;-79
2021/10/21 02:29:26;;;;;;;2.20;1.70;;;12.00;73.20;;;;;;4992070;28;20036;-80
2021/10/21 02:31:52;;;;;;;4.40;1.48;;;12.00;73.20;;;;;;4991691;28;20026;-76
2021/10/21 02:34:18;;;;;;;12.98;2.13;;;12.00;73.20;;;;;;4991519;28;20060;-77
2021/10/21 02:36:44;;;;;;;3.30;1.48;;;12.00;73.20;;;;;;4990338;28;20033;-79
2021/10/21 02:39:10;;;;;;;3.88;1.30;;;12.00;73.20;;;;;;4992270;28;20534;-79
2021/10/21 02:41:35;;;;;;;4.28;1.42;;;12.00;73.30;;;;;;4991730;28;20397;-79
2021/10/21 02:44:01;;;;;;;6.47;1.50;;;12.00;73.20;;;;;;4991560;28;20111;-81
2021/10/21 02:46:28;;;;;;;4.95;1.30;;;12.00;73.20;;;;;;4991105;28;20029;-79
2021/10/21 02:48:54;;;;;;;3.90;1.40;;;12.00;73.20;;;;;;4991548;28;20457;-78
2021/10/21 02:51:19;;;;;;;5.30;1.33;;;12.00;73.20;;;;;;4991579;28;20050;-78
2021/10/21 02:53:45;;;;;;;5.65;1.50;;;11.90;72.90;;;;;;4991763;28;20391;-79
2021/10/21 02:56:11;;;;;;;6.20;1.40;;;11.90;72.90;;;;;;5006561;28;20054;-76
2021/10/21 02:58:37;;;;;;;4.70;2.25;;;11.90;72.90;;;;;;4991275;28;20038;-79
2021/10/21 03:01:03;;;;;;;6.00;1.20;;;11.90;72.90;;;;;;4991394;28;20034;-78
2021/10/21 03:03:29;;;;;;;4.65;1.75;;;11.90;72.90;;;;;;4991413;28;20030;-81
2021/10/21 03:05:55;;;;;;;6.18;1.30;;;11.90;72.80;;;;;;4991513;28;20041;-80
2021/10/21 03:08:21;;;;;;;5.20;1.45;;;11.90;72.80;;;;;;4991645;28;20026;-80
2021/10/21 03:10:48;;;;;;;7.20;1.63;;;11.90;72.80;;;;;;4991606;28;20038;-82
2021/10/21 03:13:15;;;;;;;6.03;1.25;;;11.90;72.80;;;;;;4991308;28;20065;-81
2021/10/21 03:15:41;;;;;;;6.70;1.45;;;11.90;72.80;;;;;;4991246;28;20121;-82
2021/10/21 03:18:07;;;;;;;5.20;1.40;;;11.80;72.60;;;;;;4990818;28;20208;-82
2021/10/21 03:20:34;;;;;;;4.55;1.40;;;11.90;72.80;;;;;;4990223;28;20053;-82
2021/10/21 03:23:01;;;;;;;5.43;2.45;;;11.80;72.60;;;;;;4991036;28;20030;-81
2021/10/21 03:25:27;;;;;;;3.92;1.30;;;11.80;72.60;;;;;;4991064;28;20030;-82
2021/10/21 03:27:53;;;;;;;4.95;2.55;;;11.90;72.80;;;;;;5006464;28;20030;-81
2021/10/21 03:30:19;;;;;;;4.88;1.20;;;11.90;72.80;;;;;;4991100;28;20109;-82
2021/10/21 03:32:45;;;;;;;5.88;1.48;;;11.80;72.60;;;;;;4991184;28;20382;-81
2021/10/21 03:35:11;;;;;;;6.15;1.30;;;11.90;72.80;;;;;;4991187;28;20393;-81
2021/10/21 03:37:38;;;;;;;4.30;1.00;;;11.90;72.70;;;;;;4992019;28;20482;-82
2021/10/21 03:40:05;;;;;;;3.30;1.27;;;11.90;72.80;;;;;;4995232;28;20125;-82
2021/10/21 03:42:31;;;;;;;5.43;1.40;;;11.90;72.80;;;;;;4995025;28;20026;-81
2021/10/21 03:44:57;;;;;;;3.22;1.05;;;11.90;72.70;;;;;;4995035;28;20050;-82
2021/10/21 03:47:24;;;;;;;10.00;2.05;;;11.90;72.70;;;;;;5006876;28;20105;-82
2021/10/21 03:49:51;;;;;;;5.18;1.30;;;11.90;72.70;;;;;;5014179;28;20084;-82
2021/10/21 03:52:19;;;;;;;3.88;0.90;;;12.00;72.90;;;;;;5014358;28;20043;-83
2021/10/21 03:54:45;;;;;;;5.28;1.58;;;12.00;72.80;;;;;;5014257;28;20087;-82
2021/10/21 03:57:11;;;;;;;3.50;1.25;;;12.00;72.80;;;;;;5014273;28;20061;-80
2021/10/21 03:59:38;;;;;;;4.55;1.20;;;12.00;72.80;;;;;;5014148;28;20069;-81
2021/10/21 04:02:04;;;;;;;2.83;1.33;;;12.00;72.80;;;;;;5013696;28;20112;-81
2021/10/21 04:04:30;;;;;;;6.22;1.48;;;12.00;72.80;;;;;;5014155;28;20034;-80
2021/10/21 04:06:56;;;;;;;5.18;1.15;;;12.10;72.90;;;;;;5013837;28;20539;-81
2021/10/21 04:09:22;;;;;;;5.97;1.17;;;12.10;72.80;;;;;;5012989;28;20026;-81
2021/10/21 04:11:48;;;;;;;3.20;1.33;;;12.10;72.90;;;;;;5013624;28;20129;-82
2021/10/21 04:14:14;;;;;;;3.65;0.98;;;12.10;72.80;;;;;;5014509;28;20125;-80
2021/10/21 04:16:40;;;;;;;7.05;1.85;;;12.10;72.80;;;;;;5007269;28;20481;-82
2021/10/21 04:19:06;;;;;;;5.07;1.38;;;12.10;72.80;;;;;;4993753;28;20046;-81
2021/10/21 04:21:32;;;;;;;4.18;1.00;;;12.10;72.70;;;;;;5009267;28;20034;-78
2021/10/21 04:23:58;;;;;;;4.57;1.08;;;12.10;72.70;;;;;;4992964;28;20037;-81
2021/10/21 04:26:24;;;;;;;3.92;0.90;;;12.10;72.60;;;;;;4994546;28;20088;-78
2021/10/21 04:28:50;;;;;;;8.38;1.60;;;12.10;72.60;;;;;;4994163;28;20038;-82
2021/10/21 04:31:16;;;;;;;3.70;1.35;;;12.10;72.60;;;;;;4994361;28;20466;-82
2021/10/21 04:33:42;;;;;;;6.00;2.28;;;12.20;72.80;;;;;;4993926;28;20038;-81
2021/10/21 04:36:09;;;;;;;5.15;1.25;;;12.10;72.60;;;;;;4994103;28;20085;-79
2021/10/21 04:38:34;;;;;;;3.35;0.90;;;12.10;72.60;;;;;;5009136;28;20125;-79
2021/10/21 04:41:01;;;;;;;3.63;0.95;;;12.20;72.80;;;;;;4993605;28;20049;-81
2021/10/21 04:43:26;;;;;;;1.45;1.10;;;12.20;72.80;;;;;;4993889;28;20069;-80
2021/10/21 04:45:52;;;;;;;1.85;0.82;;;12.20;72.80;;;;;;4993590;28;20023;-79
2021/10/21 04:48:18;;;;;;;1.88;1.17;;;12.20;72.80;;;;;;4996884;28;20402;-80
2021/10/21 04:50:44;;;;;;;1.70;0.88;;;12.20;72.90;;;;;;4989912;28;20031;-81
2021/10/21 04:53:11;;;;;;;3.00;1.00;;;12.20;72.90;;;;;;5005609;28;20026;-82
2021/10/21 04:55:37;;;;;;;4.78;0.90;;;12.20;72.90;;;;;;4990652;28;20385;-83
2021/10/21 04:58:04;;;;;;;4.13;0.90;;;12.20;72.90;;;;;;4995023;28;20030;-83
2021/10/21 05:00:31;;;;;;;4.18;1.42;;;12.20;72.80;;;;;;5009554;28;20038;-83
2021/10/21 05:02:57;;;;;;;3.00;0.80;;;12.20;72.90;;;;;;5003036;28;20553;-83
2021/10/21 05:05:23;;;;;;;4.10;0.80;;;12.20;72.80;;;;;;4988763;28;20034;-84
2021/10/21 05:07:49;;;;;;;5.47;1.63;;;12.20;72.80;;;;;;4993009;28;20420;-83
2021/10/21 05:10:15;;;;;;;3.53;1.48;;;12.20;72.80;;;;;;5007842;28;20030;-81
2021/10/21 05:12:41;;;;;;;1.77;0.65;;;12.20;72.80;;;;;;5007598;28;20477;-79
2021/10/21 05:15:07;;;;;;;4.05;1.13;;;12.20;72.80;;;;;;5007091;28;20030;-79
2021/10/21 05:17:33;;;;;;;4.85;1.17;;;12.20;72.80;;;;;;4995415;28;20038;-78
2021/10/21 05:19:59;;;;;;;3.67;0.90;;;12.20;72.80;;;;;;5007752;28;20088;-81
2021/10/21 05:22:26;;;;;;;4.72;1.00;;;12.20;72.70;;;;;;5002124;28;20478;-83
2021/10/21 05:24:52;;;;;;;3.70;1.05;;;12.20;72.70;;;;;;4987706;28;20034;-81
2021/10/21 05:27:18;;;;;;;4.20;1.10;;;12.20;72.60;;;;;;4987184;28;20405;-80
2021/10/21 05:29:44;;;;;;;7.57;1.58;;;12.20;72.60;;;;;;4988411;28;20133;-81
2021/10/21 05:32:09;;;;;;;2.03;0.98;;;12.20;72.60;;;;;;4991144;28;20091;-78
2021/10/21 05:34:37;;;;;;;2.78;1.17;;;12.20;72.50;;;;;;5007766;28;20117;-78
2021/10/21 05:37:05;;;;;;;3.55;0.68;;;12.20;72.50;;;;;;5023428;28;20065;-80
2021/10/21 05:39:32;;;;;;;3.78;1.20;;;12.20;72.40;;;;;;4989803;28;20042;-84
2021/10/21 05:41:59;;;;;;;5.75;1.08;;;12.20;72.40;;;;;;4990065;28;20591;-82
2021/10/21 05:44:26;;;;;;;3.28;0.88;;;12.20;72.30;;;;;;4991168;28;20077;-83
2021/10/21 05:46:52;;;;;;;4.15;0.90;;;12.10;72.10;;;;;;4990689;28;20097;-79
2021/10/21 05:49:18;;;;;;;4.53;1.27;;;12.10;72.10;;;;;;5003803;28;20474;-80
2021/10/21 05:51:45;;;;;;;3.80;0.95;;;12.10;72.10;;;;;;5007529;28;20477;-81
2021/10/21 05:54:11;;;;;;;4.20;1.23;;;12.10;72.10;;;;;;4987418;28;20038;-81
2021/10/21 05:56:37;;;;;;;2.90;0.70;;;12.10;72.00;;;;;;4988010;28;20022;-83
2021/10/21 05:59:03;;;;;;;6.00;1.70;;;12.10;72.00;;;;;;4987567;28;20268;-84
2021/10/21 06:01:30;;;;;;;7.25;1.45;;;12.10;72.00;;;;;;4986950;28;20132;-82
2021/10/21 06:03:56;;;;;;;9.38;1.60;;;12.10;72.00;;;;;;4988652;28;20034;-89
2021/10/21 06:06:22;;;;;;;7.85;1.48;;;12.10;71.80;;;;;;4988510;28;20030;-88
2021/10/21 06:08:49;;;;;;;8.50;2.63;;;12.10;71.40;;;;;;4999725;28;20068;-79
2021/10/21 06:11:14;;;;;;;9.07;3.15;;;12.10;71.20;;;;;;5007840;28;20132;-82
2021/10/21 06:13:41;;;;;;;6.22;1.50;;;12.10;71.10;;;;;;4992098;28;20605;-85
2021/10/21 06:16:08;;;;;;;13.88;2.10;;;12.10;70.90;;;;;;4988175;28;20062;-87
2021/10/21 06:18:34;;;;;;;6.30;2.00;;;12.10;70.70;;;;;;4995939;28;20100;-85
2021/10/21 06:21:05;;;;;;;13.15;3.25;;;12.10;70.70;;;;;;4987315;28;20298;-83
2021/10/21 06:23:31;;;;;;;8.80;2.95;;;12.10;70.50;;;;;;4987731;28;20137;-88
2021/10/21 06:25:57;;;;;;;7.40;1.70;;;12.10;70.70;;;;;;4988564;28;20411;-80
2021/10/21 06:28:23;;;;;;;7.95;2.80;;;12.10;70.90;;;;;;4995816;28;20037;-81
2021/10/21 06:30:49;;;;;;;8.20;1.67;;;12.10;70.90;;;;;;5006082;28;20481;-85
2021/10/21 06:33:16;;;;;;;6.03;1.83;;;12.10;70.80;;;;;;5010062;28;20505;-82
2021/10/21 06:35:43;;;;;;;9.43;1.85;;;12.10;71.30;;;;;;4986771;28;20026;-83
2021/10/21 06:38:09;;;;;;;2.95;1.17;;;12.10;70.70;;;;;;4986725;28;20069;-86
2021/10/21 06:40:35;;;;;;;5.28;1.10;;;12.00;70.50;;;;;;4987652;28;20117;-85
2021/10/21 06:43:02;;;;;;;6.00;1.63;;;12.00;70.40;;;;;;4982053;28;20058;-88
2021/10/21 06:45:28;;;;;;;4.45;1.25;;;12.00;70.30;;;;;;4987939;28;20069;-89
2021/10/21 06:47:54;;;;;;;6.15;2.15;;;12.00;70.30;;;;;;4985464;28;20053;-90
2021/10/21 06:50:20;;;;;;;7.65;2.00;;;11.90;70.10;;;;;;4988212;28;20046;-92
2021/10/21 06:52:49;;;;;;;5.45;2.03;;;11.90;70.00;;;;;;4986819;28;20042;-89
2021/10/21 06:55:15;;;;;;;7.63;1.38;;;11.90;69.90;;;;;;4989798;28;20076;-87
2021/10/21 06:57:52;;;;;;;5.88;1.38;;;11.90;69.90;;;;;;4996580;28;20089;-87
2021/10/21 07:00:19;;;;;;;6.45;1.70;;;11.90;69.70;;;;;;4986783;28;20093;-89
2021/10/21 07:02:45;;;;;;;7.28;1.77;;;11.80;69.50;;;;;;4995342;28;20110;-82
2021/10/21 07:05:15;;;;;;;4.97;1.30;;;11.80;69.50;;;;;;5007709;28;20034;-90
2021/10/21 07:07:41;;;;;;;6.07;1.30;;;11.80;69.40;;;;;;5004245;28;20026;-85
2021/10/21 07:10:08;;;;;;;6.30;1.58;;;11.70;69.20;;;;;;4987738;28;20043;-89
2021/10/21 07:12:39;;;;;;;6.60;1.73;;;11.70;69.10;;;;;;4989052;28;20030;-91
2021/10/21 07:15:07;;;;;;;4.97;1.20;;;11.70;69.10;;;;;;4992603;28;20446;-89
2021/10/21 07:17:34;;;;;;;5.45;1.13;;;11.60;68.90;;;;;;5007024;28;20582;-92
2021/10/21 07:20:00;;;;;;;4.40;1.20;;;11.60;68.90;;;;;;5012555;28;20038;-90
2021/10/21 07:22:26;;;;;;;4.85;1.80;;;11.60;68.80;;;;;;5007888;28;20088;-89
2021/10/21 07:24:52;;;;;;;3.47;1.23;;;11.50;68.60;;;;;;4992874;28;20474;-89
2021/10/21 07:27:19;;;;;;;3.22;1.08;;;11.50;68.60;;;;;;4992303;28;20041;-89
2021/10/21 07:29:45;;;;;;;5.18;1.40;;;11.50;68.50;;;;;;5009600;28;20512;-87
2021/10/21 07:32:12;;;;;;;2.97;1.15;;;11.40;68.30;;;;;;5010174;28;20049;-88
2021/10/21 07:34:40;;;;;;;2.75;1.00;;;11.50;68.50;;;;;;5009416;28;20096;-87
2021/10/21 07:37:07;;;;;;;5.28;1.10;;;11.40;68.20;;;;;;5010310;28;20026;-83
2021/10/21 07:39:33;;;;;;;5.07;1.77;;;11.40;68.20;;;;;;4992349;28;20050;-86
2021/10/21 07:42:01;;;;;;;3.63;1.27;;;11.40;68.10;;;;;;4991754;28;20397;-87
2021/10/21 07:44:31;;;;;;;7.10;1.10;;;11.40;68.00;;;;;;5008855;28;20385;-82
2021/10/21 07:46:59;;;;;;;1.90;1.23;;;11.40;68.00;;;;;;5016027;28;20495;-86
2021/10/21 07:49:25;;;;;;;5.05;1.38;;;11.40;67.90;;;;;;4990644;28;20437;-86
2021/10/21 07:51:51;;;;;;;3.42;1.00;;;11.30;67.70;;;;;;4989166;28;20485;-88
2021/10/21 07:54:17;;;;;;;7.20;1.13;;;11.30;67.60;;;;;;4990311;28;20044;-88
2021/10/21 07:56:43;;;;;;;3.83;1.30;;;11.30;67.60;;;;;;4990084;28;20384;-79
2021/10/21 07:59:09;;;;;;;4.00;1.02;;;11.30;67.50;;;;;;4989308;28;20105;-79
2021/10/21 08:01:35;;;;;;;6.28;1.40;;;11.30;67.50;;;;;;4989991;28;20339;-84
2021/10/21 08:04:01;;;;;;;5.07;1.20;;;11.30;67.40;;;;;;4988694;28;20073;-82
2021/10/21 08:06:29;;;;;;;2.88;0.70;;;11.30;67.30;;;;;;4989126;28;20034;-80
2021/10/21 08:08:58;;;;;;;4.97;1.00;;;11.30;67.30;;;;;;4989034;28;20041;-78
2021/10/21 08:11:24;;;;;;;6.55;1.00;;;11.30;67.20;;;;;;4989262;28;20393;-80
2021/10/21 08:13:49;;;;;;;3.75;1.30;;;11.30;67.20;;;;;;4989997;28;20030;-83
2021/10/21 08:16:15;;;;;;;3.63;1.25;;;11.30;67.10;;;;;;4989442;28;20363;-79
2021/10/21 08:18:41;;;;;;;4.65;2.05;;;11.30;67.20;;;;;;4988874;28;20050;-80
2021/10/21 08:21:07;;;;;;;4.40;1.55;;;11.30;67.00;;;;;;4988138;28;20057;-84
2021/10/21 08:23:33;;;;;;;3.13;0.88;;;11.30;66.80;;;;;;4989042;28;20494;-82
2021/10/21 08:25:59;;;;;;;5.35;1.30;;;11.30;66.50;;;;;;4989047;28;20371;-81
2021/10/21 08:28:25;;;;;;;4.82;1.45;;;11.30;66.40;;;;;;4988920;28;20041;-83
2021/10/21 08:30:51;;;;;;;5.63;1.30;;;11.30;66.30;;;;;;4982127;28;20130;-86
2021/10/21 08:33:18;;;;;;;6.05;1.33;;;11.30;66.10;;;;;;4989018;28;20121;-86
2021/10/21 08:35:44;;;;;;;10.55;2.70;;;11.30;66.00;;;;;;4989181;28;20250;-81
2021/10/21 08:38:10;;;;;;;3.53;0.82;;;11.30;65.80;;;;;;4989623;28;20038;-79
2021/10/21 08:40:37;;;;;;;3.60;1.42;;;11.30;65.80;;;;;;4989855;28;20521;-87
2021/10/21 08:43:05;;;;;;;5.57;1.42;;;11.30;65.80;;;;;;4990057;28;20034;-85
2021/10/21 08:45:32;;;;;;;2.50;1.13;;;11.30;65.80;;;;;;5004423;28;20038;-79
2021/10/21 08:48:02;;;;;;;4.10;1.23;;;11.30;65.70;;;;;;4988316;28;20042;-84
2021/10/21 08:50:30;;;;;;;5.28;1.35;;;11.30;65.40;;;;;;5001970;28;20386;-82
2021/10/21 08:52:57;;;;;;;6.80;1.58;;;11.30;65.20;;;;;;4994979;28;20034;-82
2021/10/21 08:55:23;;;;;;;5.88;1.20;;;11.30;65.10;;;;;;5008777;28;20096;-84
2021/10/21 08:57:49;;;;;;;6.05;1.75;;;11.40;64.90;;;;;;5005431;28;20420;-82
2021/10/21 09:00:15;;;;;;;9.30;1.13;;;11.40;64.70;;;;;;5003871;28;20103;-83
2021/10/21 09:03:00;;;;;;;4.07;1.00;;;11.40;64.50;;;;;;4988438;28;20514;-83
2021/10/21 09:08:03;;;;;;;6.32;0.90;;;11.30;63.90;;;;;;4965871;28;20245;-81
2021/10/21 09:10:30;;;;;;;4.88;1.10;;;11.30;63.50;;;;;;5000546;28;20034;-82
2021/10/21 09:12:58;;;;;;;8.65;1.48;;;11.40;63.70;;;;;;4990069;28;20030;-83
2021/10/21 09:15:27;;;;;;;4.85;0.95;;;11.30;63.80;;;;;;4988860;28;20037;-81
2021/10/21 09:17:54;;;;;;;5.28;1.05;;;11.30;63.10;;;;;;4990839;28;20092;-80
2021/10/21 09:20:37;;;;;;;7.38;0.82;;;11.30;63.00;;;;;;5007622;28;20046;-83
2021/10/21 09:23:06;;;;;;;;;;;11.30;62.90;;;;;;4998910;28;20022;-82
2021/10/21 09:25:33;;;;;;;5.07;0.85;;;11.40;63.30;;;;;;4988412;28;19931;-82
2021/10/21 09:28:02;;;;;;;8.38;1.70;;;11.40;63.20;;;;;;5003465;28;20486;-82
2021/10/21 09:30:32;;;;;;;4.43;1.02;;;11.40;63.10;;;;;;4987246;28;20038;-82
2021/10/21 09:33:13;;;;;;;4.10;0.93;;;11.40;62.90;;;;;;4986702;28;20540;-81
2021/10/21 09:35:49;;;;;;;5.47;1.55;;;11.40;62.70;;;;;;4987887;28;20038;-81
2021/10/21 09:38:17;;;;;;;5.03;0.70;;;11.40;62.70;;;;;;4987735;28;20124;-81
2021/10/21 09:40:43;;;;;;;4.70;1.00;;;11.50;62.70;;;;;;4988124;28;20511;-84
2021/10/21 09:43:14;;;;;;;5.55;1.00;;;11.50;62.60;;;;;;4987967;28;20050;-82
2021/10/21 09:45:43;;;;;;;3.13;0.85;;;11.50;62.50;;;;;;4987744;28;20034;-83
2021/10/21 09:48:09;;;;;;;3.35;0.90;;;11.50;62.30;;;;;;5000448;28;20065;-83
2021/10/21 09:50:42;;;;;;;2.67;0.70;;;11.60;62.30;;;;;;4987249;28;20069;-82
2021/10/21 09:53:31;;;;;;;2.63;0.70;;;11.60;62.20;;;;;;4987050;28;20065;-81
2021/10/21 09:56:06;;;;;;;3.25;1.00;;;11.60;62.10;;;;;;4987683;28;20192;-82
2021/10/21 09:58:37;;;;;;;2.80;1.35;;;11.60;62.00;;;;;;4996088;28;20053;-86
2021/10/21 10:01:14;;;;;;;6.15;1.30;;;11.60;61.80;;;;;;5007164;28;20120;-83
2021/10/21 10:03:45;;;;;;;5.88;1.40;;;11.70;61.90;;;;;;4992695;28;20038;-85
2021/10/21 10:06:18;;;;;;;3.55;1.27;;;11.70;61.90;;;;;;4986330;28;20485;-85
2021/10/21 10:08:47;;;;;;;2.65;0.80;;;11.70;61.70;;;;;;4987853;28;20038;-84
2021/10/21 10:11:20;;;;;;;4.40;1.27;;;11.80;61.80;;;;;;4987606;28;20092;-84
2021/10/21 10:13:47;;;;;;;6.65;0.82;;;11.80;61.80;;;;;;4986362;28;20103;-83
2021/10/21 10:16:14;;;;;;;4.65;1.20;;;11.90;61.90;;;;;;4985740;28;20445;-81
2021/10/21 10:18:43;;;;;;;4.03;0.82;;;11.90;61.80;;;;;;5004989;28;20164;-79
2021/10/21 10:21:23;;;;;;;3.30;0.85;;;11.90;61.70;;;;;;5007063;28;20038;-84
2021/10/21 10:24:06;;;;;;;6.65;1.13;;;11.90;61.50;;;;;;4993355;28;20069;-83
2021/10/21 10:26:54;;;;;;;5.63;1.00;;;12.00;61.60;;;;;;5005464;28;20034;-83
2021/10/21 10:29:32;;;;;;;2.65;1.23;;;12.00;61.50;;;;;;4990464;28;20050;-81
2021/10/21 10:32:04;;;;;;;2.92;0.98;;;12.10;61.60;;;;;;4985736;28;20084;-82
2021/10/21 10:34:36;;;;;;;3.08;1.00;;;12.00;61.50;;;;;;4966271;28;20446;-82
2021/10/21 10:37:14;;;;;;;7.88;1.63;;;12.10;61.50;;;;;;4967472;28;20030;-82
2021/10/21 10:39:58;;;;;;;6.53;1.73;;;12.20;61.50;;;;;;4999695;28;20076;-79
2021/10/21 10:42:32;;;;;;;5.35;1.67;;;12.20;61.40;;;;;;4986920;28;20034;-81
2021/10/21 10:45:04;;;;;;;4.75;1.30;;;12.30;61.60;;;;;;4987353;28;20042;-81
2021/10/21 10:47:50;;;;;;;8.30;1.50;;;12.30;61.30;;;;;;5001309;28;20142;-80
2021/10/21 10:50:26;;;;;;;5.03;1.17;;;12.40;61.10;;;;;;4967179;28;20519;-81
2021/10/21 10:53:03;;;;;;;3.45;1.10;;;12.40;61.10;;;;;;4981497;28;20033;-81
2021/10/21 10:55:46;;;;;;;4.90;2.03;;;12.40;60.80;;;;;;5006652;28;20038;-80
2021/10/21 10:58:16;;;;;;;4.15;0.93;;;12.40;60.50;;;;;;5000738;28;20038;-80
2021/10/21 11:00:51;;;;;;;5.93;1.98;;;12.40;60.50;;;;;;4968915;28;20103;-81
2021/10/21 11:03:32;;;;;;;5.53;1.65;;;12.50;60.60;;;;;;4986643;28;20038;-80
2021/10/21 11:06:01;;;;;;;7.38;1.65;;;12.60;60.70;;;;;;4986475;28;20096;-84
2021/10/21 11:09:08;;;;;;;6.82;1.63;;;12.60;60.80;;;;;;4985833;28;20037;-80
2021/10/21 11:11:40;;;;;;;6.63;1.88;;;12.70;60.90;;;;;;4965917;28;20027;-82
2021/10/21 11:14:07;;;;;;;4.93;1.10;;;12.70;61.00;;;;;;4983428;28;20022;-82
2021/10/21 11:16:43;;;;;;;4.85;1.42;;;12.80;61.10;;;;;;4985020;28;20645;-82
2021/10/21 11:19:11;;;;;;;4.18;1.42;;;12.80;61.00;;;;;;4986107;28;20057;-83
2021/10/21 11:21:52;;;;;;;5.32;1.45;;;12.90;61.10;;;;;;5001465;28;20390;-81
2021/10/21 11:24:43;;;;;;;4.70;1.67;;;12.90;60.80;;;;;;5004634;28;20073;-81
2021/10/21 11:27:09;;;;;;;3.28;1.35;;;12.90;60.70;;;;;;5005616;28;20069;-83
2021/10/21 11:29:35;;;;;;;6.72;1.33;;;13.00;61.00;;;;;;4989061;28;20080;-82
2021/10/21 11:32:06;;;;;;;4.50;1.10;;;13.00;60.80;;;;;;4986357;28;20489;-78
2021/10/21 11:34:33;;;;;;;7.38;0.95;;;13.10;60.70;;;;;;4986622;28;20371;-81
2021/10/21 11:36:59;;;;;;;7.22;1.45;;;13.10;60.50;;;;;;4984557;28;20057;-81
2021/10/21 11:39:37;;;;;;;2.30;1.10;;;13.10;60.30;;;;;;4999704;28;20038;-82
2021/10/21 11:42:11;;;;;;;3.45;1.02;;;13.20;60.20;;;;;;5004182;28;20040;-82
2021/10/21 11:44:38;;;;;;;3.63;1.20;;;13.20;60.00;;;;;;4986925;28;20117;-81
2021/10/21 11:47:07;;;;;;;6.32;1.25;;;13.20;60.00;;;;;;4986220;28;20050;-80
2021/10/21 11:49:35;;;;;;;7.47;1.65;;;13.30;60.00;;;;;;4986008;28;20026;-82
2021/10/21 11:52:06;;;;;;;5.07;1.10;;;13.30;59.90;;;;;;4984115;28;20180;-80
2021/10/21 11:54:32;;;;;;;2.35;1.05;;;13.30;60.20;;;;;;4985942;28;20031;-82
2021/10/21 11:56:59;;;;;;;3.70;1.48;;;13.30;59.40;;;;;;4986178;28;20569;-82
2021/10/21 11:59:52;;;;;;;2.60;0.70;;;13.40;59.40;;;;;;5003362;28;20031;-84
2021/10/21 12:02:18;;;;;;;5.47;1.67;;;13.40;59.00;;;;;;4985638;28;20117;-83
2021/10/21 12:04:46;;;;;;;4.25;1.23;;;13.50;59.30;;;;;;4989288;28;20034;-82
2021/10/21 12:07:13;;;;;;;3.22;0.90;;;13.50;59.10;;;;;;5004919;28;20034;-81
2021/10/21 12:09:41;;;;;;;4.75;1.52;;;13.60;59.20;;;;;;4989488;28;20038;-82
2021/10/21 12:12:13;;;;;;;4.10;0.80;;;13.60;58.90;;;;;;4988820;28;20058;-82
2021/10/21 12:14:43;;;;;;;2.20;0.80;;;13.60;58.50;;;;;;5009492;28;20245;-82
2021/10/21 12:17:10;;;;;;;2.40;0.88;;;13.70;58.50;;;;;;4998222;28;20085;-79
2021/10/21 12:19:39;;;;;;;2.53;0.95;;;13.70;59.00;;;;;;4988660;28;20133;-81
2021/10/21 12:22:14;;;;;;;3.80;0.82;;;13.80;58.40;;;;;;4988789;28;20026;-81
2021/10/21 12:24:45;;;;;;;2.40;0.80;;;13.80;58.20;;;;;;5004552;28;20398;-84
2021/10/21 12:27:20;;;;;;;5.32;1.58;;;13.90;58.40;;;;;;4989650;28;20037;-81
2021/10/21 12:29:47;;;;;;;3.28;0.90;;;14.00;58.20;;;;;;5005343;28;20038;-79
2021/10/21 12:32:19;;;;;;;3.33;1.00;;;14.00;58.10;;;;;;5007325;28;20041;-78
2021/10/21 12:34:47;;;;;;;2.10;0.73;;;14.00;57.80;;;;;;4988186;28;20085;-79
2021/10/21 12:37:18;;;;;;;3.85;1.17;;;14.10;57.90;;;;;;4989467;28;20033;-75
2021/10/21 12:39:44;;;;;;;3.03;1.70;;;14.20;57.90;;;;;;4987454;28;20588;-80
2021/10/21 12:42:19;;;;;;;2.25;1.20;;;14.20;57.70;;;;;;4988519;28;20022;-79
2021/10/21 12:44:55;;;;;;;4.97;0.80;;;14.20;57.20;;;;;;4988601;28;20439;-81
2021/10/21 12:47:23;;;;;;;3.03;0.82;;;14.30;57.30;;;;;;4988624;28;20105;-77
2021/10/21 12:50:11;;;;;;;2.30;1.05;;;14.30;57.30;;;;;;4988738;28;20320;-78
2021/10/21 12:52:39;;;;;;;3.50;1.00;;;14.40;57.30;;;;;;4988497;28;20058;-81
2021/10/21 12:55:19;;;;;;;3.20;0.90;;;14.40;57.30;;;;;;4988744;28;20037;-78